Tuguegarao, Philippines
Current Conditions -  °F | °C
As of 8:00 PM on Thursday 29 Jan 2015 (Local Time) from RPLI Reporting Station
Scattered Clouds Scattered Clouds  
Wind Chill: 75°   Ceiling: Unl
Heat Index: 75°   Visibility: 6mi
Dew Point: 68°   Wind: 2mph
Humidity: 78%   Direction: 40°NE
Pressure: 29.91"   Gusts: NA
Location:  17.62°N, 121.72°E
Report Text: RPLI 291200Z 04002KT 9999 FEW019 SCT100 24/20 Q1013 NOSIGRMK A2991
Loading
Personal Weather Stations






























Interactive Weather Map New forecast layout! Learn more

10-Day Weather Forecast

Advertisements
Track Severe Weather on mobile